sensor_id;sensor_type;location;lat;lon;timestamp;temperature;humidity
71563;DHT22;59391;52.504;13.438;2023-04-24T00:00:37;14.80;60.60
71563;DHT22;59391;52.504;13.438;2023-04-24T00:03:06;14.80;60.70
71563;DHT22;59391;52.504;13.438;2023-04-24T00:05:32;14.80;60.80
71563;DHT22;59391;52.504;13.438;2023-04-24T00:08:00;14.80;60.90
71563;DHT22;59391;52.504;13.438;2023-04-24T00:10:26;14.80;61.00
71563;DHT22;59391;52.504;13.438;2023-04-24T00:12:51;14.80;61.00
71563;DHT22;59391;52.504;13.438;2023-04-24T00:15:17;14.80;61.00
71563;DHT22;59391;52.504;13.438;2023-04-24T00:17:43;14.70;61.10
71563;DHT22;59391;52.504;13.438;2023-04-24T00:20:08;14.70;61.30
71563;DHT22;59391;52.504;13.438;2023-04-24T00:22:35;14.70;61.40
71563;DHT22;59391;52.504;13.438;2023-04-24T00:25:01;14.70;61.60
71563;DHT22;59391;52.504;13.438;2023-04-24T00:27:27;14.70;61.60
71563;DHT22;59391;52.504;13.438;2023-04-24T00:29:52;14.70;61.80
71563;DHT22;59391;52.504;13.438;2023-04-24T00:32:18;14.70;61.80
71563;DHT22;59391;52.504;13.438;2023-04-24T00:34:44;14.60;62.00
71563;DHT22;59391;52.504;13.438;2023-04-24T00:37:09;14.60;62.00
71563;DHT22;59391;52.504;13.438;2023-04-24T00:39:36;14.60;62.10
71563;DHT22;59391;52.504;13.438;2023-04-24T00:42:02;14.60;62.00
71563;DHT22;59391;52.504;13.438;2023-04-24T00:44:28;14.60;62.20
71563;DHT22;59391;52.504;13.438;2023-04-24T00:46:54;14.60;62.40
71563;DHT22;59391;52.504;13.438;2023-04-24T00:49:21;14.60;62.40
71563;DHT22;59391;52.504;13.438;2023-04-24T00:51:47;14.50;62.40
71563;DHT22;59391;52.504;13.438;2023-04-24T00:54:15;14.50;62.50
71563;DHT22;59391;52.504;13.438;2023-04-24T00:56:42;14.50;62.60
71563;DHT22;59391;52.504;13.438;2023-04-24T00:59:08;14.50;62.70
71563;DHT22;59391;52.504;13.438;2023-04-24T01:01:34;14.50;62.90
71563;DHT22;59391;52.504;13.438;2023-04-24T01:04:01;14.50;62.90
71563;DHT22;59391;52.504;13.438;2023-04-24T01:06:28;14.50;63.00
71563;DHT22;59391;52.504;13.438;2023-04-24T01:08:57;14.40;63.20
71563;DHT22;59391;52.504;13.438;2023-04-24T01:11:26;14.40;63.20
71563;DHT22;59391;52.504;13.438;2023-04-24T01:13:52;14.40;63.30
71563;DHT22;59391;52.504;13.438;2023-04-24T01:16:18;14.40;63.60
71563;DHT22;59391;52.504;13.438;2023-04-24T01:18:46;14.40;63.70
71563;DHT22;59391;52.504;13.438;2023-04-24T01:21:14;14.30;63.90
71563;DHT22;59391;52.504;13.438;2023-04-24T01:23:45;14.30;63.80
71563;DHT22;59391;52.504;13.438;2023-04-24T01:26:12;14.30;63.90
71563;DHT22;59391;52.504;13.438;2023-04-24T01:28:39;14.30;64.00
71563;DHT22;59391;52.504;13.438;2023-04-24T01:31:05;14.20;64.00
71563;DHT22;59391;52.504;13.438;2023-04-24T01:33:31;14.20;64.00
71563;DHT22;59391;52.504;13.438;2023-04-24T01:35:57;14.20;64.00
71563;DHT22;59391;52.504;13.438;2023-04-24T01:38:23;14.20;64.10
71563;DHT22;59391;52.504;13.438;2023-04-24T01:40:49;14.20;64.00
71563;DHT22;59391;52.504;13.438;2023-04-24T01:43:16;14.20;64.10
71563;DHT22;59391;52.504;13.438;2023-04-24T01:45:42;14.20;64.10
71563;DHT22;59391;52.504;13.438;2023-04-24T01:48:08;14.20;64.20
71563;DHT22;59391;52.504;13.438;2023-04-24T01:50:34;14.20;64.40
71563;DHT22;59391;52.504;13.438;2023-04-24T01:52:59;14.10;64.80
71563;DHT22;59391;52.504;13.438;2023-04-24T01:55:25;14.10;64.80
71563;DHT22;59391;52.504;13.438;2023-04-24T01:57:52;14.10;64.90
71563;DHT22;59391;52.504;13.438;2023-04-24T02:00:20;14.10;64.80
71563;DHT22;59391;52.504;13.438;2023-04-24T02:02:46;14.10;64.90
71563;DHT22;59391;52.504;13.438;2023-04-24T02:05:12;14.10;65.00
71563;DHT22;59391;52.504;13.438;2023-04-24T02:07:37;14.10;65.10
71563;DHT22;59391;52.504;13.438;2023-04-24T02:10:04;14.00;65.30
71563;DHT22;59391;52.504;13.438;2023-04-24T02:12:30;14.00;65.40
71563;DHT22;59391;52.504;13.438;2023-04-24T02:14:56;14.00;65.60
71563;DHT22;59391;52.504;13.438;2023-04-24T02:17:21;14.00;65.50
71563;DHT22;59391;52.504;13.438;2023-04-24T02:19:47;14.00;65.60
71563;DHT22;59391;52.504;13.438;2023-04-24T02:22:13;14.00;65.70
71563;DHT22;59391;52.504;13.438;2023-04-24T02:24:39;14.10;65.60
71563;DHT22;59391;52.504;13.438;2023-04-24T02:27:05;14.10;65.80
71563;DHT22;59391;52.504;13.438;2023-04-24T02:29:31;14.10;65.70
71563;DHT22;59391;52.504;13.438;2023-04-24T02:31:57;14.10;65.60
71563;DHT22;59391;52.504;13.438;2023-04-24T02:34:22;14.10;65.60
71563;DHT22;59391;52.504;13.438;2023-04-24T02:36:48;14.10;65.60
71563;DHT22;59391;52.504;13.438;2023-04-24T02:39:14;14.10;65.60
71563;DHT22;59391;52.504;13.438;2023-04-24T02:41:44;14.20;65.60
71563;DHT22;59391;52.504;13.438;2023-04-24T02:44:09;14.10;65.70
71563;DHT22;59391;52.504;13.438;2023-04-24T02:46:35;14.20;65.80
71563;DHT22;59391;52.504;13.438;2023-04-24T02:49:00;14.20;65.80
71563;DHT22;59391;52.504;13.438;2023-04-24T02:51:26;14.20;65.80
71563;DHT22;59391;52.504;13.438;2023-04-24T02:53:52;14.20;65.90
71563;DHT22;59391;52.504;13.438;2023-04-24T02:56:18;14.20;65.80
71563;DHT22;59391;52.504;13.438;2023-04-24T02:58:43;14.20;66.10
71563;DHT22;59391;52.504;13.438;2023-04-24T03:01:09;14.20;66.10
71563;DHT22;59391;52.504;13.438;2023-04-24T03:03:36;14.20;66.30
71563;DHT22;59391;52.504;13.438;2023-04-24T03:06:02;14.20;66.40
71563;DHT22;59391;52.504;13.438;2023-04-24T03:08:28;14.20;66.50
71563;DHT22;59391;52.504;13.438;2023-04-24T03:10:54;14.20;66.50
71563;DHT22;59391;52.504;13.438;2023-04-24T03:13:19;14.30;66.40
71563;DHT22;59391;52.504;13.438;2023-04-24T03:15:45;14.30;66.60
71563;DHT22;59391;52.504;13.438;2023-04-24T03:18:12;14.30;66.70
71563;DHT22;59391;52.504;13.438;2023-04-24T03:20:37;14.30;66.50
71563;DHT22;59391;52.504;13.438;2023-04-24T03:23:03;14.40;66.50
71563;DHT22;59391;52.504;13.438;2023-04-24T03:25:29;14.40;66.50
71563;DHT22;59391;52.504;13.438;2023-04-24T03:27:55;14.40;66.40
71563;DHT22;59391;52.504;13.438;2023-04-24T03:30:20;14.40;66.20
71563;DHT22;59391;52.504;13.438;2023-04-24T03:32:46;14.50;66.10
71563;DHT22;59391;52.504;13.438;2023-04-24T03:35:12;14.50;66.10
71563;DHT22;59391;52.504;13.438;2023-04-24T03:37:38;14.50;66.10
71563;DHT22;59391;52.504;13.438;2023-04-24T03:40:04;14.50;65.80
71563;DHT22;59391;52.504;13.438;2023-04-24T03:42:31;14.60;65.90
71563;DHT22;59391;52.504;13.438;2023-04-24T03:44:56;14.60;65.80
71563;DHT22;59391;52.504;13.438;2023-04-24T03:47:22;14.60;65.70
71563;DHT22;59391;52.504;13.438;2023-04-24T03:49:48;14.60;65.60
71563;DHT22;59391;52.504;13.438;2023-04-24T03:52:13;14.60;65.50
71563;DHT22;59391;52.504;13.438;2023-04-24T03:54:39;14.70;65.30
71563;DHT22;59391;52.504;13.438;2023-04-24T03:57:05;14.60;65.40
71563;DHT22;59391;52.504;13.438;2023-04-24T03:59:31;14.70;65.30
71563;DHT22;59391;52.504;13.438;2023-04-24T04:01:56;14.70;65.30
71563;DHT22;59391;52.504;13.438;2023-04-24T04:04:22;14.70;65.40
71563;DHT22;59391;52.504;13.438;2023-04-24T04:06:48;14.70;65.20
71563;DHT22;59391;52.504;13.438;2023-04-24T04:09:14;14.70;65.30
71563;DHT22;59391;52.504;13.438;2023-04-24T04:11:40;14.70;65.20
71563;DHT22;59391;52.504;13.438;2023-04-24T04:14:06;14.70;65.20
71563;DHT22;59391;52.504;13.438;2023-04-24T04:16:32;14.70;65.30
71563;DHT22;59391;52.504;13.438;2023-04-24T04:18:57;14.70;65.30
71563;DHT22;59391;52.504;13.438;2023-04-24T04:21:23;14.70;65.20
71563;DHT22;59391;52.504;13.438;2023-04-24T04:23:49;14.70;65.30
71563;DHT22;59391;52.504;13.438;2023-04-24T04:26:15;14.70;65.30
71563;DHT22;59391;52.504;13.438;2023-04-24T04:28:40;14.70;65.30
71563;DHT22;59391;52.504;13.438;2023-04-24T04:31:06;14.80;65.20
71563;DHT22;59391;52.504;13.438;2023-04-24T04:33:33;14.80;65.20
71563;DHT22;59391;52.504;13.438;2023-04-24T04:35:59;14.80;65.10
71563;DHT22;59391;52.504;13.438;2023-04-24T04:38:25;14.80;65.00
71563;DHT22;59391;52.504;13.438;2023-04-24T04:40:55;14.80;64.90
71563;DHT22;59391;52.504;13.438;2023-04-24T04:43:22;14.80;64.90
71563;DHT22;59391;52.504;13.438;2023-04-24T04:45:49;14.80;64.80
71563;DHT22;59391;52.504;13.438;2023-04-24T04:48:16;14.90;64.90
71563;DHT22;59391;52.504;13.438;2023-04-24T04:50:44;14.90;64.70
71563;DHT22;59391;52.504;13.438;2023-04-24T04:53:09;14.90;64.70
71563;DHT22;59391;52.504;13.438;2023-04-24T04:55:36;14.90;64.80
71563;DHT22;59391;52.504;13.438;2023-04-24T04:58:02;14.90;64.60
71563;DHT22;59391;52.504;13.438;2023-04-24T05:00:28;15.00;64.60
71563;DHT22;59391;52.504;13.438;2023-04-24T05:03:01;15.00;64.40
71563;DHT22;59391;52.504;13.438;2023-04-24T05:05:27;15.00;64.30
71563;DHT22;59391;52.504;13.438;2023-04-24T05:07:52;15.00;64.20
71563;DHT22;59391;52.504;13.438;2023-04-24T05:10:18;15.00;64.20
71563;DHT22;59391;52.504;13.438;2023-04-24T05:12:43;15.00;64.30
71563;DHT22;59391;52.504;13.438;2023-04-24T05:15:10;14.90;64.40
71563;DHT22;59391;52.504;13.438;2023-04-24T05:17:36;14.90;64.40
71563;DHT22;59391;52.504;13.438;2023-04-24T05:20:03;14.90;64.50
71563;DHT22;59391;52.504;13.438;2023-04-24T05:22:31;14.90;64.40
71563;DHT22;59391;52.504;13.438;2023-04-24T05:24:56;14.80;64.40
71563;DHT22;59391;52.504;13.438;2023-04-24T05:27:22;14.80;64.60
71563;DHT22;59391;52.504;13.438;2023-04-24T05:29:48;14.80;64.60
71563;DHT22;59391;52.504;13.438;2023-04-24T05:32:14;14.80;64.60
71563;DHT22;59391;52.504;13.438;2023-04-24T05:34:39;14.80;64.70
71563;DHT22;59391;52.504;13.438;2023-04-24T05:37:05;14.80;64.60
71563;DHT22;59391;52.504;13.438;2023-04-24T05:39:34;14.80;64.60
71563;DHT22;59391;52.504;13.438;2023-04-24T05:42:00;14.80;64.50
71563;DHT22;59391;52.504;13.438;2023-04-24T05:44:27;14.80;64.20
71563;DHT22;59391;52.504;13.438;2023-04-24T05:46:52;14.80;64.00
71563;DHT22;59391;52.504;13.438;2023-04-24T05:49:18;14.80;63.90
71563;DHT22;59391;52.504;13.438;2023-04-24T05:51:44;14.80;64.00
71563;DHT22;59391;52.504;13.438;2023-04-24T05:54:09;14.80;63.80
71563;DHT22;59391;52.504;13.438;2023-04-24T05:56:37;14.80;63.80
71563;DHT22;59391;52.504;13.438;2023-04-24T05:59:03;14.80;63.70
71563;DHT22;59391;52.504;13.438;2023-04-24T06:01:29;14.80;63.70
71563;DHT22;59391;52.504;13.438;2023-04-24T06:03:55;14.80;63.40
71563;DHT22;59391;52.504;13.438;2023-04-24T06:06:20;14.80;63.50
71563;DHT22;59391;52.504;13.438;2023-04-24T06:08:46;14.90;63.40
71563;DHT22;59391;52.504;13.438;2023-04-24T06:11:12;14.90;63.30
71563;DHT22;59391;52.504;13.438;2023-04-24T06:13:37;14.90;63.10
71563;DHT22;59391;52.504;13.438;2023-04-24T06:16:03;14.90;63.00
71563;DHT22;59391;52.504;13.438;2023-04-24T06:18:29;14.90;62.90
71563;DHT22;59391;52.504;13.438;2023-04-24T06:20:55;15.00;62.30
71563;DHT22;59391;52.504;13.438;2023-04-24T06:23:21;15.00;62.40
71563;DHT22;59391;52.504;13.438;2023-04-24T06:25:47;15.10;62.00
71563;DHT22;59391;52.504;13.438;2023-04-24T06:28:12;15.10;61.60
71563;DHT22;59391;52.504;13.438;2023-04-24T06:30:38;15.20;61.60
71563;DHT22;59391;52.504;13.438;2023-04-24T06:33:04;15.20;61.60
71563;DHT22;59391;52.504;13.438;2023-04-24T06:35:29;15.20;61.10
71563;DHT22;59391;52.504;13.438;2023-04-24T06:37:55;15.20;60.70
71563;DHT22;59391;52.504;13.438;2023-04-24T06:40:21;15.30;60.50
71563;DHT22;59391;52.504;13.438;2023-04-24T06:42:47;15.30;60.40
71563;DHT22;59391;52.504;13.438;2023-04-24T06:45:13;15.30;60.50
71563;DHT22;59391;52.504;13.438;2023-04-24T06:47:38;15.40;60.20
71563;DHT22;59391;52.504;13.438;2023-04-24T06:50:05;15.40;59.60
71563;DHT22;59391;52.504;13.438;2023-04-24T06:52:31;15.50;59.50
71563;DHT22;59391;52.504;13.438;2023-04-24T06:55:02;15.50;59.20
71563;DHT22;59391;52.504;13.438;2023-04-24T06:57:29;15.60;59.40
71563;DHT22;59391;52.504;13.438;2023-04-24T06:59:55;15.70;59.20
71563;DHT22;59391;52.504;13.438;2023-04-24T07:02:21;15.70;59.30
71563;DHT22;59391;52.504;13.438;2023-04-24T07:04:47;15.80;57.90
71563;DHT22;59391;52.504;13.438;2023-04-24T07:07:13;16.00;58.40
71563;DHT22;59391;52.504;13.438;2023-04-24T07:09:42;16.10;57.80
71563;DHT22;59391;52.504;13.438;2023-04-24T07:12:08;16.20;56.20
71563;DHT22;59391;52.504;13.438;2023-04-24T07:14:36;16.30;56.30
71563;DHT22;59391;52.504;13.438;2023-04-24T07:17:06;16.40;56.10
71563;DHT22;59391;52.504;13.438;2023-04-24T07:19:33;16.50;55.40
71563;DHT22;59391;52.504;13.438;2023-04-24T07:22:00;16.60;55.10
71563;DHT22;59391;52.504;13.438;2023-04-24T07:24:26;16.60;53.70
71563;DHT22;59391;52.504;13.438;2023-04-24T07:26:54;16.70;53.70
71563;DHT22;59391;52.504;13.438;2023-04-24T07:29:20;16.70;53.80
71563;DHT22;59391;52.504;13.438;2023-04-24T07:31:46;16.80;52.70
71563;DHT22;59391;52.504;13.438;2023-04-24T07:34:12;16.80;51.70
71563;DHT22;59391;52.504;13.438;2023-04-24T07:36:38;16.90;50.80
71563;DHT22;59391;52.504;13.438;2023-04-24T07:39:04;17.00;49.60
71563;DHT22;59391;52.504;13.438;2023-04-24T07:41:31;17.10;49.80
71563;DHT22;59391;52.504;13.438;2023-04-24T07:43:56;17.10;49.60
71563;DHT22;59391;52.504;13.438;2023-04-24T07:46:22;17.20;50.10
71563;DHT22;59391;52.504;13.438;2023-04-24T07:48:48;17.30;49.40
71563;DHT22;59391;52.504;13.438;2023-04-24T07:51:15;17.40;49.20
71563;DHT22;59391;52.504;13.438;2023-04-24T07:53:41;17.40;48.80
71563;DHT22;59391;52.504;13.438;2023-04-24T07:56:07;17.50;47.80
71563;DHT22;59391;52.504;13.438;2023-04-24T07:58:34;17.50;48.40
71563;DHT22;59391;52.504;13.438;2023-04-24T08:00:59;17.50;48.80
71563;DHT22;59391;52.504;13.438;2023-04-24T08:03:25;17.60;46.10
71563;DHT22;59391;52.504;13.438;2023-04-24T08:05:51;17.60;45.50
71563;DHT22;59391;52.504;13.438;2023-04-24T08:08:17;17.60;46.60
71563;DHT22;59391;52.504;13.438;2023-04-24T08:10:42;17.70;46.30
71563;DHT22;59391;52.504;13.438;2023-04-24T08:13:08;17.80;45.70
71563;DHT22;59391;52.504;13.438;2023-04-24T08:15:34;17.80;45.40
71563;DHT22;59391;52.504;13.438;2023-04-24T08:18:00;17.90;45.10
71563;DHT22;59391;52.504;13.438;2023-04-24T08:20:25;17.90;44.30
71563;DHT22;59391;52.504;13.438;2023-04-24T08:22:51;18.00;44.50
71563;DHT22;59391;52.504;13.438;2023-04-24T08:25:17;18.10;44.70
71563;DHT22;59391;52.504;13.438;2023-04-24T08:27:44;18.20;44.60
71563;DHT22;59391;52.504;13.438;2023-04-24T08:30:12;18.20;45.90
71563;DHT22;59391;52.504;13.438;2023-04-24T08:32:38;18.30;46.90
71563;DHT22;59391;52.504;13.438;2023-04-24T08:35:04;18.50;47.50
71563;DHT22;59391;52.504;13.438;2023-04-24T08:37:30;18.70;47.60
71563;DHT22;59391;52.504;13.438;2023-04-24T08:39:56;19.00;47.40
71563;DHT22;59391;52.504;13.438;2023-04-24T08:42:22;19.20;46.70
71563;DHT22;59391;52.504;13.438;2023-04-24T08:44:49;19.40;45.10
71563;DHT22;59391;52.504;13.438;2023-04-24T08:47:15;19.50;44.30
71563;DHT22;59391;52.504;13.438;2023-04-24T08:49:42;19.60;44.50
71563;DHT22;59391;52.504;13.438;2023-04-24T08:52:10;19.60;44.10
71563;DHT22;59391;52.504;13.438;2023-04-24T08:54:39;19.60;44.80
71563;DHT22;59391;52.504;13.438;2023-04-24T08:57:08;19.80;42.40
71563;DHT22;59391;52.504;13.438;2023-04-24T08:59:38;19.90;42.10
71563;DHT22;59391;52.504;13.438;2023-04-24T09:02:04;20.00;42.60
71563;DHT22;59391;52.504;13.438;2023-04-24T09:04:30;20.10;42.40
71563;DHT22;59391;52.504;13.438;2023-04-24T09:06:58;20.30;40.40
71563;DHT22;59391;52.504;13.438;2023-04-24T09:09:25;20.50;40.80
71563;DHT22;59391;52.504;13.438;2023-04-24T09:11:52;20.60;40.60
71563;DHT22;59391;52.504;13.438;2023-04-24T09:14:21;20.70;40.40
71563;DHT22;59391;52.504;13.438;2023-04-24T09:16:48;20.70;40.50
71563;DHT22;59391;52.504;13.438;2023-04-24T09:19:15;20.70;40.50
71563;DHT22;59391;52.504;13.438;2023-04-24T09:21:40;20.60;41.10
71563;DHT22;59391;52.504;13.438;2023-04-24T09:24:18;20.50;41.20
71563;DHT22;59391;52.504;13.438;2023-04-24T09:26:47;20.30;41.70
71563;DHT22;59391;52.504;13.438;2023-04-24T09:29:17;20.10;42.30
71563;DHT22;59391;52.504;13.438;2023-04-24T09:31:45;20.00;43.60
71563;DHT22;59391;52.504;13.438;2023-04-24T09:34:11;19.90;42.00
71563;DHT22;59391;52.504;13.438;2023-04-24T09:36:39;19.80;42.10
71563;DHT22;59391;52.504;13.438;2023-04-24T09:39:11;19.80;42.90
71563;DHT22;59391;52.504;13.438;2023-04-24T09:41:48;19.70;42.70
71563;DHT22;59391;52.504;13.438;2023-04-24T09:44:27;19.60;43.60
71563;DHT22;59391;52.504;13.438;2023-04-24T09:46:59;19.60;44.30
71563;DHT22;59391;52.504;13.438;2023-04-24T09:49:26;19.50;44.40
71563;DHT22;59391;52.504;13.438;2023-04-24T09:52:06;19.30;44.70
71563;DHT22;59391;52.504;13.438;2023-04-24T09:54:36;19.30;44.50
71563;DHT22;59391;52.504;13.438;2023-04-24T09:57:03;19.20;44.80
71563;DHT22;59391;52.504;13.438;2023-04-24T09:59:29;19.20;45.00
71563;DHT22;59391;52.504;13.438;2023-04-24T10:01:55;19.10;44.50
71563;DHT22;59391;52.504;13.438;2023-04-24T10:04:23;19.10;44.60
71563;DHT22;59391;52.504;13.438;2023-04-24T10:06:52;19.00;44.50
71563;DHT22;59391;52.504;13.438;2023-04-24T10:09:21;19.00;44.30
71563;DHT22;59391;52.504;13.438;2023-04-24T10:11:52;19.00;43.90
71563;DHT22;59391;52.504;13.438;2023-04-24T10:14:21;19.00;44.70
71563;DHT22;59391;52.504;13.438;2023-04-24T10:16:50;19.00;45.30
71563;DHT22;59391;52.504;13.438;2023-04-24T10:19:18;19.10;45.60
71563;DHT22;59391;52.504;13.438;2023-04-24T10:21:44;19.20;45.50
71563;DHT22;59391;52.504;13.438;2023-04-24T10:24:15;19.30;45.30
71563;DHT22;59391;52.504;13.438;2023-04-24T10:26:45;19.40;45.00
71563;DHT22;59391;52.504;13.438;2023-04-24T10:29:18;19.50;44.70
71563;DHT22;59391;52.504;13.438;2023-04-24T10:31:44;19.60;43.90
71563;DHT22;59391;52.504;13.438;2023-04-24T10:34:15;19.80;43.70
71563;DHT22;59391;52.504;13.438;2023-04-24T10:36:50;19.90;43.10
71563;DHT22;59391;52.504;13.438;2023-04-24T10:39:17;20.00;42.90
71563;DHT22;59391;52.504;13.438;2023-04-24T10:41:44;20.00;43.80
71563;DHT22;59391;52.504;13.438;2023-04-24T10:44:13;19.90;43.50
71563;DHT22;59391;52.504;13.438;2023-04-24T10:46:45;19.90;43.50
71563;DHT22;59391;52.504;13.438;2023-04-24T10:49:13;19.80;43.00
71563;DHT22;59391;52.504;13.438;2023-04-24T10:51:53;19.80;42.80
71563;DHT22;59391;52.504;13.438;2023-04-24T10:54:26;19.70;42.40
71563;DHT22;59391;52.504;13.438;2023-04-24T10:59:52;19.40;43.30
71563;DHT22;59391;52.504;13.438;2023-04-24T11:02:39;19.30;43.90
71563;DHT22;59391;52.504;13.438;2023-04-24T11:05:15;19.20;44.70
71563;DHT22;59391;52.504;13.438;2023-04-24T11:08:16;19.10;44.70
71563;DHT22;59391;52.504;13.438;2023-04-24T11:13:23;19.10;44.00
71563;DHT22;59391;52.504;13.438;2023-04-24T11:18:42;19.40;44.20
71563;DHT22;59391;52.504;13.438;2023-04-24T11:21:17;19.70;43.20
71563;DHT22;59391;52.504;13.438;2023-04-24T11:23:43;20.00;42.50
71563;DHT22;59391;52.504;13.438;2023-04-24T11:26:11;20.20;42.40
71563;DHT22;59391;52.504;13.438;2023-04-24T11:28:45;20.40;42.80
71563;DHT22;59391;52.504;13.438;2023-04-24T11:31:38;20.40;42.20
71563;DHT22;59391;52.504;13.438;2023-04-24T11:34:09;20.40;42.40
71563;DHT22;59391;52.504;13.438;2023-04-24T11:36:37;20.40;41.80
71563;DHT22;59391;52.504;13.438;2023-04-24T11:39:04;20.30;42.00
71563;DHT22;59391;52.504;13.438;2023-04-24T11:41:30;20.20;45.20
71563;DHT22;59391;52.504;13.438;2023-04-24T11:43:57;20.00;51.00
71563;DHT22;59391;52.504;13.438;2023-04-24T11:46:26;19.60;56.10
71563;DHT22;59391;52.504;13.438;2023-04-24T11:48:53;19.20;59.90
71563;DHT22;59391;52.504;13.438;2023-04-24T11:51:18;18.80;61.20
71563;DHT22;59391;52.504;13.438;2023-04-24T11:53:44;18.60;62.40
71563;DHT22;59391;52.504;13.438;2023-04-24T11:56:10;18.50;62.90
71563;DHT22;59391;52.504;13.438;2023-04-24T11:58:37;18.40;62.30
71563;DHT22;59391;52.504;13.438;2023-04-24T12:01:05;18.50;61.00
71563;DHT22;59391;52.504;13.438;2023-04-24T12:03:31;18.60;61.00
71563;DHT22;59391;52.504;13.438;2023-04-24T12:06:08;18.80;61.10
71563;DHT22;59391;52.504;13.438;2023-04-24T12:08:35;19.00;58.20
71563;DHT22;59391;52.504;13.438;2023-04-24T12:11:02;19.20;56.30
71563;DHT22;59391;52.504;13.438;2023-04-24T12:13:29;19.40;57.40
71563;DHT22;59391;52.504;13.438;2023-04-24T12:15:57;19.60;58.30
71563;DHT22;59391;52.504;13.438;2023-04-24T12:18:23;19.90;54.30
71563;DHT22;59391;52.504;13.438;2023-04-24T12:20:49;20.20;51.70
71563;DHT22;59391;52.504;13.438;2023-04-24T12:23:15;20.40;51.50
71563;DHT22;59391;52.504;13.438;2023-04-24T12:25:41;20.60;51.30
71563;DHT22;59391;52.504;13.438;2023-04-24T12:28:12;20.80;48.00
71563;DHT22;59391;52.504;13.438;2023-04-24T12:30:43;21.10;49.90
71563;DHT22;59391;52.504;13.438;2023-04-24T12:33:20;21.30;45.30
71563;DHT22;59391;52.504;13.438;2023-04-24T12:35:48;21.40;44.90
71563;DHT22;59391;52.504;13.438;2023-04-24T12:38:22;21.60;47.60
71563;DHT22;59391;52.504;13.438;2023-04-24T12:41:03;21.80;44.50
71563;DHT22;59391;52.504;13.438;2023-04-24T12:43:33;21.70;41.60
71563;DHT22;59391;52.504;13.438;2023-04-24T12:45:59;21.70;37.60
71563;DHT22;59391;52.504;13.438;2023-04-24T12:48:28;21.50;37.10
71563;DHT22;59391;52.504;13.438;2023-04-24T12:50:58;21.30;36.40
71563;DHT22;59391;52.504;13.438;2023-04-24T12:53:27;21.10;35.70
71563;DHT22;59391;52.504;13.438;2023-04-24T12:55:54;20.80;35.20
71563;DHT22;59391;52.504;13.438;2023-04-24T12:58:21;20.50;35.40
71563;DHT22;59391;52.504;13.438;2023-04-24T13:00:47;20.50;36.00
71563;DHT22;59391;52.504;13.438;2023-04-24T13:03:13;20.40;35.90
71563;DHT22;59391;52.504;13.438;2023-04-24T13:05:39;20.50;33.90
71563;DHT22;59391;52.504;13.438;2023-04-24T13:08:05;20.40;35.60
71563;DHT22;59391;52.504;13.438;2023-04-24T13:10:31;20.40;34.90
71563;DHT22;59391;52.504;13.438;2023-04-24T13:12:57;20.50;34.80
71563;DHT22;59391;52.504;13.438;2023-04-24T13:15:23;20.50;34.60
71563;DHT22;59391;52.504;13.438;2023-04-24T13:17:50;20.50;33.90
71563;DHT22;59391;52.504;13.438;2023-04-24T13:20:16;20.40;32.50
71563;DHT22;59391;52.504;13.438;2023-04-24T13:22:42;20.40;31.90
71563;DHT22;59391;52.504;13.438;2023-04-24T13:25:08;20.30;31.70
71563;DHT22;59391;52.504;13.438;2023-04-24T13:27:34;20.30;31.70
71563;DHT22;59391;52.504;13.438;2023-04-24T13:30:00;20.30;31.80
71563;DHT22;59391;52.504;13.438;2023-04-24T13:32:25;20.40;32.60
71563;DHT22;59391;52.504;13.438;2023-04-24T13:34:52;20.50;33.10
71563;DHT22;59391;52.504;13.438;2023-04-24T13:37:18;20.80;31.70
71563;DHT22;59391;52.504;13.438;2023-04-24T13:39:44;20.90;30.90
71563;DHT22;59391;52.504;13.438;2023-04-24T13:42:09;21.00;29.80
71563;DHT22;59391;52.504;13.438;2023-04-24T13:44:38;21.00;29.20
71563;DHT22;59391;52.504;13.438;2023-04-24T13:47:05;20.90;29.50
71563;DHT22;59391;52.504;13.438;2023-04-24T13:49:31;20.90;29.80
71563;DHT22;59391;52.504;13.438;2023-04-24T13:51:56;21.00;30.20
71563;DHT22;59391;52.504;13.438;2023-04-24T13:54:22;21.00;29.90
71563;DHT22;59391;52.504;13.438;2023-04-24T13:56:51;21.00;30.90
71563;DHT22;59391;52.504;13.438;2023-04-24T13:59:17;21.10;30.80
71563;DHT22;59391;52.504;13.438;2023-04-24T14:01:44;21.20;30.80
71563;DHT22;59391;52.504;13.438;2023-04-24T14:04:10;21.20;29.00
71563;DHT22;59391;52.504;13.438;2023-04-24T14:06:36;21.20;29.80
71563;DHT22;59391;52.504;13.438;2023-04-24T14:09:01;21.10;29.70
71563;DHT22;59391;52.504;13.438;2023-04-24T14:11:27;21.10;30.10
71563;DHT22;59391;52.504;13.438;2023-04-24T14:13:54;21.10;30.30
71563;DHT22;59391;52.504;13.438;2023-04-24T14:16:21;21.10;30.20
71563;DHT22;59391;52.504;13.438;2023-04-24T14:18:47;21.10;30.30
71563;DHT22;59391;52.504;13.438;2023-04-24T14:21:13;21.10;30.20
71563;DHT22;59391;52.504;13.438;2023-04-24T14:23:38;21.00;29.80
71563;DHT22;59391;52.504;13.438;2023-04-24T14:26:04;21.00;30.60
71563;DHT22;59391;52.504;13.438;2023-04-24T14:28:30;21.00;30.60
71563;DHT22;59391;52.504;13.438;2023-04-24T14:30:56;20.90;30.20
71563;DHT22;59391;52.504;13.438;2023-04-24T14:33:21;20.90;30.60
71563;DHT22;59391;52.504;13.438;2023-04-24T14:35:47;20.80;30.40
71563;DHT22;59391;52.504;13.438;2023-04-24T14:38:13;20.70;30.30
71563;DHT22;59391;52.504;13.438;2023-04-24T14:40:39;20.60;30.90
71563;DHT22;59391;52.504;13.438;2023-04-24T14:43:05;20.60;29.80
71563;DHT22;59391;52.504;13.438;2023-04-24T14:45:31;20.50;29.80
71563;DHT22;59391;52.504;13.438;2023-04-24T14:48:00;20.40;30.10
71563;DHT22;59391;52.504;13.438;2023-04-24T14:50:26;20.40;30.70
71563;DHT22;59391;52.504;13.438;2023-04-24T14:52:53;20.30;31.30
71563;DHT22;59391;52.504;13.438;2023-04-24T14:55:22;20.20;31.70
71563;DHT22;59391;52.504;13.438;2023-04-24T14:57:48;20.20;32.10
71563;DHT22;59391;52.504;13.438;2023-04-24T15:00:17;20.30;32.00
71563;DHT22;59391;52.504;13.438;2023-04-24T15:02:45;20.50;31.60
71563;DHT22;59391;52.504;13.438;2023-04-24T15:05:11;20.60;31.10
71563;DHT22;59391;52.504;13.438;2023-04-24T15:07:37;20.60;31.40
71563;DHT22;59391;52.504;13.438;2023-04-24T15:10:04;20.60;31.80
71563;DHT22;59391;52.504;13.438;2023-04-24T15:12:30;20.50;31.40
71563;DHT22;59391;52.504;13.438;2023-04-24T15:18:17;20.20;31.90
71563;DHT22;59391;52.504;13.438;2023-04-24T15:20:50;20.00;32.50
71563;DHT22;59391;52.504;13.438;2023-04-24T15:23:16;19.90;32.70
71563;DHT22;59391;52.504;13.438;2023-04-24T15:25:42;19.80;32.70